Time;durP1;ratioP1;P1;durP2;ratioP2;P2;SDS_P1;SDS_P2;PMS_P1;PMS_P2;Temp;Humidity;BMP_temperature;BMP_pressure;BME280_temperature;BME280_humidity;BME280_pressure;Samples;Min_cycle;Max_cycle;Signal;HPM_P1;HPM_P2
2021/12/23 00:05:57;;;;;;;1999.90;999.90;;;;;;;-0.53;69.33;101701.72;15708705;28;20041;-62
2021/12/23 00:13:30;;;;;;;1999.90;999.90;;;;;;;-1.13;71.93;101682.63;15677872;28;20482;-62
2021/12/23 00:28:57;;;;;;;1999.90;999.90;;;;;;;-1.13;72.64;101657.97;15737530;28;20059;-62
2021/12/23 00:36:30;;;;;;;1999.90;999.90;;;;;;;-1.11;72.65;101661.31;15708116;28;20052;-62
2021/12/23 00:44:03;;;;;;;1999.90;999.90;;;;;;;-1.18;72.19;101647.69;15687457;28;20060;-62
2021/12/23 00:51:37;;;;;;;1999.90;999.90;;;;;;;-0.64;70.46;101636.75;15686472;28;20052;-62
2021/12/23 00:59:10;;;;;;;1999.90;999.90;;;;;;;-0.93;71.77;101633.03;15714617;28;20044;-62
2021/12/23 01:06:44;;;;;;;1999.90;999.90;;;;;;;-1.15;71.70;101613.50;15696349;28;20040;-63
2021/12/23 01:14:28;;;;;;;1999.90;999.90;;;;;;;-0.83;71.08;101607.75;15697829;28;20045;-63
2021/12/23 01:22:02;;;;;;;1999.90;999.90;;;;;;;-0.45;70.73;101607.31;15711270;28;20045;-63
2021/12/23 01:29:35;;;;;;;1999.90;999.90;;;;;;;-1.06;71.05;101614.84;15659038;28;20416;-61
2021/12/23 01:37:09;;;;;;;1999.90;999.90;;;;;;;-1.11;72.12;101606.53;15710880;28;20435;-61
2021/12/23 01:44:42;;;;;;;1999.90;999.90;;;;;;;-0.71;70.05;101603.16;15699764;28;20040;-61
2021/12/23 01:52:16;;;;;;;1999.90;999.90;;;;;;;-0.70;70.03;101597.44;15710131;28;20417;-63
2021/12/23 01:59:49;;;;;;;1999.90;999.90;;;;;;;-0.59;69.92;101579.31;15730031;28;20111;-62
2021/12/23 02:07:27;;;;;;;1999.90;999.90;;;;;;;-0.52;69.35;101574.56;15678173;28;20449;-63
2021/12/23 02:14:59;;;;;;;1999.90;999.90;;;;;;;-0.76;70.17;101567.38;15715923;28;20049;-64
2021/12/23 02:22:34;;;;;;;1999.90;999.90;;;;;;;-0.86;70.42;101546.03;15723145;28;20059;-61
2021/12/23 02:30:10;;;;;;;1999.90;999.90;;;;;;;-0.74;70.64;101535.91;15711459;28;20490;-63
2021/12/23 02:37:46;;;;;;;1999.90;999.90;;;;;;;-0.46;69.97;101520.66;15736301;28;20134;-62
2021/12/23 02:45:19;;;;;;;1999.90;999.90;;;;;;;-0.82;70.69;101494.34;15707325;28;20067;-63
2021/12/23 02:52:53;;;;;;;1999.90;999.90;;;;;;;-0.72;70.78;101476.22;15706028;28;20052;-61
2021/12/23 03:00:26;;;;;;;1999.90;999.90;;;;;;;-0.90;71.16;101447.03;15723707;28;20291;-63
2021/12/23 03:08:01;;;;;;;1999.90;999.90;;;;;;;-1.01;72.32;101438.81;15704925;28;20048;-62
2021/12/23 03:15:34;;;;;;;1999.90;999.90;;;;;;;-0.63;71.15;101428.16;15710851;28;20044;-61
2021/12/23 03:23:07;;;;;;;1999.90;999.90;;;;;;;-0.51;70.80;101411.72;15701532;28;20417;-62
2021/12/23 03:30:40;;;;;;;1999.90;999.90;;;;;;;-0.65;70.72;101391.09;15697832;28;20235;-63
2021/12/23 03:38:15;;;;;;;1999.90;999.90;;;;;;;-0.77;72.05;101376.59;15727152;28;20102;-62
2021/12/23 03:45:50;;;;;;;1999.90;999.90;;;;;;;-0.54;70.47;101370.22;15701972;28;20041;-63
2021/12/23 03:53:23;;;;;;;1999.90;999.90;;;;;;;-0.88;71.61;101343.50;15692813;28;20091;-62
2021/12/23 04:00:56;;;;;;;1999.90;999.90;;;;;;;-0.34;70.43;101337.72;15671997;28;20045;-62
2021/12/23 04:08:30;;;;;;;1999.90;999.90;;;;;;;-0.63;71.23;101318.50;15702951;28;20047;-62
2021/12/23 04:16:05;;;;;;;1999.90;999.90;;;;;;;-0.36;69.50;101310.53;15712520;28;20049;-61
2021/12/23 04:23:39;;;;;;;1999.90;999.90;;;;;;;-0.44;70.21;101293.66;15710166;28;20087;-62
2021/12/23 04:31:14;;;;;;;1999.90;999.90;;;;;;;-0.28;69.59;101281.06;15695090;28;20490;-63
2021/12/23 04:38:48;;;;;;;1999.90;999.90;;;;;;;-0.43;70.44;101278.84;15682616;28;20045;-63
2021/12/23 04:46:20;;;;;;;1999.90;999.90;;;;;;;-0.36;70.39;101260.34;15682593;28;20041;-62
2021/12/23 04:53:54;;;;;;;1999.90;999.90;;;;;;;0.03;68.64;101241.25;15702690;28;20472;-63
2021/12/23 05:01:30;;;;;;;1999.90;999.90;;;;;;;-0.14;69.65;101219.28;15698212;28;20060;-62
2021/12/23 05:09:03;;;;;;;1999.90;999.90;;;;;;;-0.13;69.69;101216.31;15700756;28;20379;-62
2021/12/23 05:16:36;;;;;;;1999.90;999.90;;;;;;;-0.35;70.58;101224.44;15694395;28;20106;-65
2021/12/23 05:24:10;;;;;;;1999.90;999.90;;;;;;;-0.07;70.36;101225.47;15718969;28;20438;-65
2021/12/23 05:31:43;;;;;;;1999.90;999.90;;;;;;;-0.07;68.62;101187.03;15703878;28;20051;-64
2021/12/23 05:39:16;;;;;;;1999.90;999.90;;;;;;;-0.24;70.62;101187.03;15717496;28;20497;-63
2021/12/23 05:46:49;;;;;;;1999.90;999.90;;;;;;;-0.07;69.05;101179.66;15687352;28;20120;-62
2021/12/23 05:54:31;;;;;;;1999.90;999.90;;;;;;;-0.02;68.66;101170.66;15682595;28;20041;-65
2021/12/23 06:02:06;;;;;;;1999.90;999.90;;;;;;;0.04;68.80;101155.09;15695687;28;20045;-65
2021/12/23 06:09:39;;;;;;;1999.90;999.90;;;;;;;0.13;69.70;101148.94;15712117;28;20052;-65
2021/12/23 06:17:12;;;;;;;1999.90;999.90;;;;;;;0.40;68.59;101138.03;15699741;28;20518;-63
2021/12/23 06:24:48;;;;;;;1999.90;999.90;;;;;;;0.25;68.13;101129.59;15705029;28;20367;-63
2021/12/23 06:32:20;;;;;;;1999.90;999.90;;;;;;;0.26;68.99;101126.59;15722060;28;20055;-63
2021/12/23 06:39:54;;;;;;;1999.90;999.90;;;;;;;0.34;67.85;101117.09;15716473;28;20041;-63
2021/12/23 06:47:27;;;;;;;1999.90;999.90;;;;;;;-0.06;69.20;101081.72;15712114;28;20048;-62
2021/12/23 06:55:02;;;;;;;1999.90;999.90;;;;;;;0.19;69.58;101060.06;15711201;28;20113;-64
2021/12/23 07:02:40;;;;;;;1999.90;999.90;;;;;;;0.34;68.49;101088.81;15708145;28;20045;-64
2021/12/23 07:10:16;;;;;;;1999.90;999.90;;;;;;;0.22;68.66;101072.47;15704106;28;20219;-62
2021/12/23 07:17:48;;;;;;;1999.90;999.90;;;;;;;0.41;67.90;101079.28;15684974;28;20051;-64
2021/12/23 07:25:22;;;;;;;1999.90;999.90;;;;;;;0.50;67.97;101061.25;15745971;28;20524;-64
2021/12/23 07:32:55;;;;;;;1999.90;999.90;;;;;;;0.54;67.82;101054.19;15707341;28;20144;-64
2021/12/23 07:40:30;;;;;;;1999.90;999.90;;;;;;;0.58;67.77;101052.56;15709528;28;20048;-63
2021/12/23 07:48:02;;;;;;;1999.90;999.90;;;;;;;0.82;66.60;101058.56;15734152;28;20489;-63
2021/12/23 07:55:38;;;;;;;1999.90;999.90;;;;;;;0.52;67.27;101045.38;15748426;28;20098;-64
2021/12/23 08:03:11;;;;;;;1999.90;999.90;;;;;;;0.50;67.24;101041.22;15686551;28;20524;-64
2021/12/23 08:10:48;;;;;;;1999.90;999.90;;;;;;;0.83;66.71;101009.94;15715131;28;20052;-62
2021/12/23 08:18:21;;;;;;;1999.90;999.90;;;;;;;0.54;67.60;100990.19;15728563;28;20060;-64
2021/12/23 08:25:55;;;;;;;1999.90;999.90;;;;;;;0.55;67.41;100978.13;15708997;28;20045;-63
2021/12/23 08:33:27;;;;;;;1999.90;999.90;;;;;;;0.57;68.24;100959.44;15687191;28;20240;-65
2021/12/23 08:41:02;;;;;;;1999.90;999.90;;;;;;;0.68;67.39;100957.63;15688628;28;20046;-60
2021/12/23 08:48:34;;;;;;;1999.90;999.90;;;;;;;0.83;67.36;100947.59;15682920;28;20561;-60
2021/12/23 08:56:08;;;;;;;1999.90;999.90;;;;;;;1.08;66.64;100943.38;15684759;28;20036;-64
2021/12/23 09:03:41;;;;;;;1999.90;999.90;;;;;;;1.02;66.45;100936.19;15721615;28;20055;-63
2021/12/23 09:11:19;;;;;;;1999.90;999.90;;;;;;;1.10;66.04;100930.19;15724721;28;20045;-62
2021/12/23 09:18:54;;;;;;;1999.90;999.90;;;;;;;0.99;66.31;100906.50;15745487;22;20052;-64
2021/12/23 09:26:30;;;;;;;1999.90;999.90;;;;;;;1.09;66.49;100892.81;15602950;28;20144;-61
2021/12/23 09:34:04;;;;;;;1999.90;999.90;;;;;;;1.34;66.16;100873.69;15671533;23;20075;-78
2021/12/23 09:41:40;;;;;;;1999.90;999.90;;;;;;;1.30;66.63;100860.75;15640025;28;20040;-76
2021/12/23 09:49:12;;;;;;;1999.90;999.90;;;;;;;1.41;66.77;100841.28;15676349;28;20049;-76
2021/12/23 09:56:46;;;;;;;1999.90;999.90;;;;;;;1.80;65.69;100821.59;15658524;28;20049;-76
2021/12/23 10:04:19;;;;;;;1999.90;999.90;;;;;;;1.58;65.97;100796.25;15661929;28;20140;-76
2021/12/23 10:12:35;;;;;;;1999.90;999.90;;;;;;;1.86;64.56;100765.47;15691876;28;20055;-76
2021/12/23 10:43:27;;;;;;;1999.90;999.90;;;;;;;1.87;64.38;100645.22;15674554;28;20048;-77
2021/12/23 10:51:05;;;;;;;1999.90;999.90;;;;;;;1.84;64.88;100629.25;15682782;28;20072;-75
2021/12/23 10:58:39;;;;;;;1999.90;999.90;;;;;;;2.00;64.57;100606.97;15677876;28;20052;-76
2021/12/23 11:06:18;;;;;;;1999.90;999.90;;;;;;;2.26;63.84;100587.59;15671681;28;20041;-76
2021/12/23 11:30:24;;;;;;;1999.90;999.90;;;;;;;2.46;63.19;100589.44;15615331;28;20034;-76
2021/12/23 11:37:52;;;;;;;1999.90;999.90;;;;;;;2.86;61.71;100588.41;15668931;22;20566;-63
2021/12/23 11:45:26;;;;;;;1999.90;999.90;;;;;;;2.89;61.66;100598.88;15646255;28;20473;-61
2021/12/23 11:53:00;;;;;;;1999.90;999.90;;;;;;;3.17;61.80;100587.09;15681476;22;20041;-60
2021/12/23 12:00:42;;;;;;;1999.90;999.90;;;;;;;2.94;61.62;100545.66;15683970;28;20135;-60
2021/12/23 12:08:15;;;;;;;1999.90;999.90;;;;;;;3.31;61.23;100526.59;15709400;28;20045;-60
2021/12/23 12:15:50;;;;;;;1999.90;999.90;;;;;;;3.42;61.36;100525.38;15715143;28;20485;-59
2021/12/23 12:23:30;;;;;;;1999.90;999.90;;;;;;;3.61;60.90;100522.72;15702511;28;20226;-57
2021/12/23 12:31:07;;;;;;;1999.90;999.90;;;;;;;3.35;61.58;100488.25;15668012;28;20043;-58
2021/12/23 12:38:42;;;;;;;1999.90;999.90;;;;;;;3.06;62.93;100464.22;15685342;28;20123;-58
2021/12/23 12:46:26;;;;;;;1999.90;999.90;;;;;;;3.10;62.46;100434.13;15691599;28;20041;-59
2021/12/23 12:54:04;;;;;;;1999.90;999.90;;;;;;;3.10;63.19;100417.59;15702426;28;20401;-58
2021/12/23 13:01:41;;;;;;;1999.90;999.90;;;;;;;3.14;63.24;100402.97;15682155;28;20147;-59
2021/12/23 13:09:15;;;;;;;1999.90;999.90;;;;;;;3.38;62.67;100391.94;15653154;28;20087;-57
2021/12/23 13:17:07;;;;;;;1999.90;999.90;;;;;;;3.42;61.94;100367.34;15699839;28;20071;-57
2021/12/23 13:24:44;;;;;;;1999.90;999.90;;;;;;;3.56;62.30;100371.06;15695137;28;20075;-56
2021/12/23 13:32:18;;;;;;;1999.90;999.90;;;;;;;3.69;62.02;100399.84;15712009;28;20080;-59
2021/12/23 13:39:51;;;;;;;1999.90;999.90;;;;;;;3.59;63.18;100427.56;15710072;28;20534;-57
2021/12/23 13:47:26;;;;;;;1999.90;999.90;;;;;;;3.86;62.11;100399.38;15693000;28;20049;-57
2021/12/23 13:55:01;;;;;;;1999.90;999.90;;;;;;;3.89;62.16;100387.75;15718032;28;20053;-58
2021/12/23 14:02:35;;;;;;;1999.90;999.90;;;;;;;3.95;61.69;100386.53;15682789;28;20064;-58
2021/12/23 14:10:09;;;;;;;1999.90;999.90;;;;;;;3.74;62.25;100353.69;15707129;28;20068;-58
2021/12/23 14:17:46;;;;;;;1999.90;999.90;;;;;;;3.80;62.41;100371.00;15684542;28;20061;-57
2021/12/23 14:25:18;;;;;;;1999.90;999.90;;;;;;;3.75;62.44;100341.56;15685829;28;20415;-56
2021/12/23 14:41:03;;;;;;;1999.90;999.90;;;;;;;3.89;63.13;100322.31;15746835;27;20422;-57
2021/12/23 14:48:55;;;;;;;1999.90;999.90;;;;;;;3.76;63.19;100307.31;15694065;22;20132;-61
2021/12/23 14:56:28;;;;;;;1999.90;999.90;;;;;;;3.64;63.81;100287.59;15713921;28;20053;-62
2021/12/23 15:04:04;;;;;;;1999.90;999.90;;;;;;;3.38;64.75;100267.00;15699898;28;20047;-62
2021/12/23 15:11:38;;;;;;;1999.90;999.90;;;;;;;3.41;64.47;100264.47;15664373;28;20068;-61
2021/12/23 15:19:16;;;;;;;1999.90;999.90;;;;;;;3.49;64.42;100249.19;15651872;28;20537;-60
2021/12/23 15:26:56;;;;;;;1999.90;999.90;;;;;;;3.53;64.52;100235.63;15627254;28;20083;-61
2021/12/23 15:34:33;;;;;;;1999.90;999.90;;;;;;;3.52;63.86;100236.75;15642927;28;20045;-60
2021/12/23 15:42:09;;;;;;;1999.90;999.90;;;;;;;3.55;64.20;100200.31;15645926;28;20059;-61
2021/12/23 15:49:42;;;;;;;1999.90;999.90;;;;;;;3.60;63.75;100194.69;15613497;28;20047;-63
2021/12/23 15:57:16;;;;;;;1999.90;999.90;;;;;;;3.72;64.13;100208.84;15604350;28;20037;-61
2021/12/23 16:07:16;;;;;;;1999.90;999.90;;;;;;;3.61;64.52;100202.66;15622348;28;20046;-61
2021/12/23 16:12:53;;;;;;;1999.90;999.90;;;;;;;3.79;64.10;100201.03;15608553;28;20573;-61
2021/12/23 16:20:26;;;;;;;1999.90;999.90;;;;;;;3.95;63.78;100204.34;15598373;28;20099;-63
2021/12/23 16:28:00;;;;;;;1999.90;999.90;;;;;;;3.76;63.58;100198.88;15615738;28;20103;-60
2021/12/23 16:35:34;;;;;;;1999.90;999.90;;;;;;;3.76;63.52;100171.28;15607897;28;20038;-62
2021/12/23 16:43:09;;;;;;;1999.90;999.90;;;;;;;3.74;65.51;100165.22;15585567;28;20045;-62
2021/12/23 16:50:44;;;;;;;1999.90;999.90;;;;;;;3.62;67.01;100140.03;15610494;28;20124;-62
2021/12/23 16:58:19;;;;;;;1999.90;999.90;;;;;;;3.09;69.89;100132.00;15606378;28;20049;-60
2021/12/23 17:05:53;;;;;;;1999.90;999.90;;;;;;;2.92;72.10;100123.44;15609738;28;20052;-60
2021/12/23 17:13:28;;;;;;;1999.90;999.90;;;;;;;2.47;75.39;100111.88;15608871;28;20422;-62
2021/12/23 17:28:54;;;;;;;1999.90;999.90;;;;;;;2.72;75.60;100070.25;15611165;28;20054;-59
2021/12/23 17:36:27;;;;;;;1999.90;999.90;;;;;;;2.72;75.76;100050.16;15613574;28;20045;-61
2021/12/23 17:44:01;;;;;;;1999.90;999.90;;;;;;;2.77;76.11;100012.31;15605025;28;20224;-62
2021/12/23 17:51:34;;;;;;;1999.90;999.90;;;;;;;2.52;77.08;100004.44;15611393;28;20533;-60
2021/12/23 17:59:08;;;;;;;1999.90;999.90;;;;;;;2.71;76.80;99988.72;15573494;28;20057;-60
2021/12/23 18:06:42;;;;;;;1999.90;999.90;;;;;;;2.96;76.25;99959.13;15579605;28;20095;-61
2021/12/23 18:14:16;;;;;;;1999.90;999.90;;;;;;;2.91;76.21;99946.22;15616692;28;20107;-61
2021/12/23 18:21:48;;;;;;;1999.90;999.90;;;;;;;3.12;75.37;99938.44;15613654;28;20056;-61
2021/12/23 18:29:22;;;;;;;1999.90;999.90;;;;;;;3.00;75.95;99936.16;15598641;28;20049;-60
2021/12/23 18:36:58;;;;;;;1999.90;999.90;;;;;;;2.82;76.52;99913.06;15614814;28;20063;-62
2021/12/23 18:44:33;;;;;;;1999.90;999.90;;;;;;;2.81;77.09;99907.81;15615760;28;20045;-64
2021/12/23 18:52:09;;;;;;;1999.90;999.90;;;;;;;3.11;76.67;99901.78;15615981;28;20049;-63
2021/12/23 18:59:44;;;;;;;1999.90;999.90;;;;;;;2.90;76.92;99904.09;15609689;28;20517;-64
2021/12/23 19:07:18;;;;;;;1999.90;999.90;;;;;;;2.83;77.53;99883.56;15554946;28;20042;-61
2021/12/23 19:14:52;;;;;;;1999.90;999.90;;;;;;;2.98;77.53;99872.25;15555254;28;20050;-64
2021/12/23 19:22:24;;;;;;;1999.90;999.90;;;;;;;2.88;77.78;99853.97;15555958;28;20125;-64
2021/12/23 19:30:01;;;;;;;1999.90;999.90;;;;;;;2.88;78.43;99842.94;15566323;28;20049;-60
2021/12/23 19:37:34;;;;;;;1999.90;999.90;;;;;;;2.89;78.47;99835.50;15563686;28;20038;-63
2021/12/23 19:45:09;;;;;;;1999.90;999.90;;;;;;;3.02;78.22;99831.97;15563651;28;20042;-62
2021/12/23 19:52:43;;;;;;;1999.90;999.90;;;;;;;3.08;77.84;99825.22;15563363;28;20431;-62
2021/12/23 20:00:18;;;;;;;;;;;;;;;3.24;77.92;99819.44;15574496;28;20049;-63
2021/12/23 20:07:53;;;;;;;1999.90;999.90;;;;;;;3.14;78.36;99806.66;15625184;28;19921;-63
2021/12/23 20:15:31;;;;;;;1999.90;999.90;;;;;;;3.09;78.31;99796.53;15619762;28;20061;-63
2021/12/23 20:23:05;;;;;;;1999.90;999.90;;;;;;;3.22;78.43;99783.88;15609423;28;20072;-62
2021/12/23 20:30:40;;;;;;;;;;;;;;;3.19;78.03;99774.28;15609780;28;20046;-62
2021/12/23 20:38:15;;;;;;;1999.90;999.90;;;;;;;3.08;78.20;99763.75;15610330;22;19921;-59
2021/12/23 20:45:50;;;;;;;1999.90;999.90;;;;;;;3.18;78.14;99760.81;15644992;28;20098;-62
2021/12/23 20:53:27;;;;;;;1999.90;999.90;;;;;;;3.07;78.36;99740.91;15707514;22;20088;-59
2021/12/23 21:01:05;;;;;;;1999.90;999.90;;;;;;;3.37;77.81;99736.69;15691843;28;20563;-60
2021/12/23 21:08:38;;;;;;;1999.90;999.90;;;;;;;3.24;77.86;99721.00;15649482;28;20041;-56
2021/12/23 21:16:13;;;;;;;1999.90;999.90;;;;;;;3.56;77.12;99714.50;15650713;28;20186;-59
2021/12/23 21:23:47;;;;;;;1999.90;999.90;;;;;;;3.34;77.21;99684.13;15648292;28;20453;-62
2021/12/23 21:31:23;;;;;;;1999.90;999.90;;;;;;;3.45;77.13;99671.72;15681208;28;20059;-62
2021/12/23 21:38:57;;;;;;;1999.90;999.90;;;;;;;3.47;77.86;99655.66;15644114;28;20037;-61
2021/12/23 21:46:31;;;;;;;1999.90;999.90;;;;;;;3.25;78.61;99661.97;15665145;28;20049;-60
2021/12/23 21:54:06;;;;;;;1999.90;999.90;;;;;;;3.34;78.44;99646.31;15663538;28;20053;-60
2021/12/23 22:01:40;;;;;;;1999.90;999.90;;;;;;;3.35;79.10;99631.41;15636403;28;20045;-57
2021/12/23 22:09:13;;;;;;;1999.90;999.90;;;;;;;3.51;77.93;99626.31;15652523;28;20046;-56
2021/12/23 22:16:47;;;;;;;1999.90;999.90;;;;;;;3.35;78.92;99623.13;15634469;28;20099;-59
2021/12/23 22:24:19;;;;;;;1999.90;999.90;;;;;;;3.42;79.34;99617.97;15663098;28;20095;-59
2021/12/23 22:31:53;;;;;;;1999.90;999.90;;;;;;;3.49;78.90;99603.78;15664606;28;20055;-58
2021/12/23 22:39:26;;;;;;;1999.90;999.90;;;;;;;3.36;79.51;99590.84;15643650;28;20399;-58
2021/12/23 22:47:00;;;;;;;1999.90;999.90;;;;;;;3.53;79.69;99588.22;15617930;28;20132;-57
2021/12/23 22:54:33;;;;;;;1999.90;999.90;;;;;;;3.74;78.88;99589.31;15620865;28;20046;-58
2021/12/23 23:02:07;;;;;;;1999.90;999.90;;;;;;;3.80;78.73;99584.50;15631397;28;20283;-59
2021/12/23 23:09:40;;;;;;;1999.90;999.90;;;;;;;3.56;79.61;99579.34;15671855;28;20083;-60
2021/12/23 23:17:16;;;;;;;1999.90;999.90;;;;;;;3.96;78.83;99560.91;15682541;28;20080;-58
2021/12/23 23:24:58;;;;;;;1999.90;999.90;;;;;;;3.94;78.66;99557.63;15623831;28;20041;-57
2021/12/23 23:40:25;;;;;;;1999.90;999.90;;;;;;;4.07;78.49;99522.00;15661732;28;20049;-58
2021/12/23 23:48:02;;;;;;;1999.90;999.90;;;;;;;4.07;78.51;99522.00;15672877;28;20214;-56
2021/12/23 23:55:37;;;;;;;1999.90;999.90;;;;;;;4.21;78.47;99517.16;15654244;28;20191;-58
